sensor_id;sensor_type;location;lat;lon;timestamp;pressure;altitude;pressure_sealevel;temperature;humidity
15932;BME280;8065;49.520;11.284;2023-03-19T00:01:31;97183.06;;;12.52;70.64
15932;BME280;8065;49.520;11.284;2023-03-19T00:03:59;97175.50;;;12.54;70.87
15932;BME280;8065;49.520;11.284;2023-03-19T00:06:26;97193.06;;;12.55;70.56
15932;BME280;8065;49.520;11.284;2023-03-19T00:08:52;97180.16;;;12.57;70.51
15932;BME280;8065;49.520;11.284;2023-03-19T00:11:18;97181.94;;;12.65;70.26
15932;BME280;8065;49.520;11.284;2023-03-19T00:13:45;97178.41;;;12.49;71.05
15932;BME280;8065;49.520;11.284;2023-03-19T00:16:11;97179.69;;;12.67;70.07
15932;BME280;8065;49.520;11.284;2023-03-19T00:18:38;97180.38;;;12.64;70.86
15932;BME280;8065;49.520;11.284;2023-03-19T00:21:06;97172.81;;;12.66;70.04
15932;BME280;8065;49.520;11.284;2023-03-19T00:23:33;97178.00;;;12.75;69.89
15932;BME280;8065;49.520;11.284;2023-03-19T00:26:00;97175.19;;;12.84;69.43
15932;BME280;8065;49.520;11.284;2023-03-19T00:28:27;97180.97;;;12.86;69.68
15932;BME280;8065;49.520;11.284;2023-03-19T00:30:53;97177.19;;;12.87;69.88
15932;BME280;8065;49.520;11.284;2023-03-19T00:33:20;97171.66;;;12.79;70.09
15932;BME280;8065;49.520;11.284;2023-03-19T00:35:46;97177.00;;;12.79;69.76
15932;BME280;8065;49.520;11.284;2023-03-19T00:38:14;97176.16;;;12.63;70.34
15932;BME280;8065;49.520;11.284;2023-03-19T00:40:40;97176.69;;;12.69;70.15
15932;BME280;8065;49.520;11.284;2023-03-19T00:43:07;97172.13;;;12.69;70.21
15932;BME280;8065;49.520;11.284;2023-03-19T00:45:34;97167.38;;;12.63;70.19
15932;BME280;8065;49.520;11.284;2023-03-19T00:48:00;97174.59;;;12.62;70.49
15932;BME280;8065;49.520;11.284;2023-03-19T00:50:27;97174.25;;;12.64;70.34
15932;BME280;8065;49.520;11.284;2023-03-19T00:52:53;97173.50;;;12.63;70.22
15932;BME280;8065;49.520;11.284;2023-03-19T00:55:21;97173.50;;;12.63;70.15
15932;BME280;8065;49.520;11.284;2023-03-19T00:57:48;97176.53;;;12.50;70.72
15932;BME280;8065;49.520;11.284;2023-03-19T01:00:15;97178.63;;;12.56;70.76
15932;BME280;8065;49.520;11.284;2023-03-19T01:02:41;97178.44;;;12.37;71.31
15932;BME280;8065;49.520;11.284;2023-03-19T01:05:08;97173.84;;;12.50;70.96
15932;BME280;8065;49.520;11.284;2023-03-19T01:07:35;97177.44;;;12.41;71.16
15932;BME280;8065;49.520;11.284;2023-03-19T01:10:01;97183.97;;;12.44;71.05
15932;BME280;8065;49.520;11.284;2023-03-19T01:12:29;97178.84;;;12.51;70.92
15932;BME280;8065;49.520;11.284;2023-03-19T01:14:56;97183.06;;;12.52;70.83
15932;BME280;8065;49.520;11.284;2023-03-19T01:17:22;97191.97;;;12.44;71.36
15932;BME280;8065;49.520;11.284;2023-03-19T01:19:49;97187.63;;;12.52;70.99
15932;BME280;8065;49.520;11.284;2023-03-19T01:22:15;97193.84;;;12.56;70.83
15932;BME280;8065;49.520;11.284;2023-03-19T01:24:42;97191.75;;;12.49;71.15
15932;BME280;8065;49.520;11.284;2023-03-19T01:27:09;97192.84;;;12.48;71.14
15932;BME280;8065;49.520;11.284;2023-03-19T01:29:37;97194.41;;;12.49;71.05
15932;BME280;8065;49.520;11.284;2023-03-19T01:32:04;97195.84;;;12.46;70.93
15932;BME280;8065;49.520;11.284;2023-03-19T01:34:30;97191.31;;;12.35;71.48
15932;BME280;8065;49.520;11.284;2023-03-19T01:36:57;97202.00;;;12.23;71.78
15932;BME280;8065;49.520;11.284;2023-03-19T01:39:23;97203.53;;;12.24;71.91
15932;BME280;8065;49.520;11.284;2023-03-19T01:41:50;97203.66;;;12.27;71.66
15932;BME280;8065;49.520;11.284;2023-03-19T01:44:24;97201.53;;;12.21;72.19
15932;BME280;8065;49.520;11.284;2023-03-19T01:46:53;97205.75;;;12.22;72.18
15932;BME280;8065;49.520;11.284;2023-03-19T01:49:20;97202.00;;;12.23;71.87
15932;BME280;8065;49.520;11.284;2023-03-19T01:51:48;97205.97;;;12.29;71.72
15932;BME280;8065;49.520;11.284;2023-03-19T01:54:19;97201.53;;;12.33;71.51
15932;BME280;8065;49.520;11.284;2023-03-19T01:56:52;97203.22;;;12.25;71.92
15932;BME280;8065;49.520;11.284;2023-03-19T01:59:24;97206.97;;;12.36;71.84
15932;BME280;8065;49.520;11.284;2023-03-19T02:01:56;97207.75;;;12.37;71.77
15932;BME280;8065;49.520;11.284;2023-03-19T02:04:24;97209.75;;;12.28;71.59
15932;BME280;8065;49.520;11.284;2023-03-19T02:06:52;97204.31;;;12.24;72.04
15932;BME280;8065;49.520;11.284;2023-03-19T02:09:20;97203.03;;;12.06;72.89
15932;BME280;8065;49.520;11.284;2023-03-19T02:11:46;97210.22;;;11.93;72.82
15932;BME280;8065;49.520;11.284;2023-03-19T02:14:13;97208.41;;;11.73;73.43
15932;BME280;8065;49.520;11.284;2023-03-19T02:16:40;97203.72;;;11.58;73.90
15932;BME280;8065;49.520;11.284;2023-03-19T02:19:12;97207.81;;;11.43;74.53
15932;BME280;8065;49.520;11.284;2023-03-19T02:21:42;97215.09;;;11.34;74.76
15932;BME280;8065;49.520;11.284;2023-03-19T02:24:11;97208.88;;;11.30;74.96
15932;BME280;8065;49.520;11.284;2023-03-19T02:26:43;97213.09;;;11.19;75.53
15932;BME280;8065;49.520;11.284;2023-03-19T02:29:11;97208.06;;;11.05;76.21
15932;BME280;8065;49.520;11.284;2023-03-19T02:31:37;97208.50;;;11.07;76.30
15932;BME280;8065;49.520;11.284;2023-03-19T02:34:05;97199.88;;;11.10;76.42
15932;BME280;8065;49.520;11.284;2023-03-19T02:36:34;97202.31;;;11.15;76.10
15932;BME280;8065;49.520;11.284;2023-03-19T02:39:04;97194.03;;;11.16;75.99
15932;BME280;8065;49.520;11.284;2023-03-19T02:41:33;97191.94;;;11.22;75.29
15932;BME280;8065;49.520;11.284;2023-03-19T02:44:03;97187.69;;;11.09;76.58
15932;BME280;8065;49.520;11.284;2023-03-19T02:46:30;97191.28;;;11.25;75.60
15932;BME280;8065;49.520;11.284;2023-03-19T02:48:56;97193.94;;;11.37;74.72
15932;BME280;8065;49.520;11.284;2023-03-19T02:51:23;97190.84;;;11.47;74.18
15932;BME280;8065;49.520;11.284;2023-03-19T02:53:49;97189.53;;;11.54;74.41
15932;BME280;8065;49.520;11.284;2023-03-19T02:56:16;97190.09;;;11.59;73.97
15932;BME280;8065;49.520;11.284;2023-03-19T02:58:42;97196.63;;;11.49;74.29
15932;BME280;8065;49.520;11.284;2023-03-19T03:01:10;97186.81;;;11.29;75.04
15932;BME280;8065;49.520;11.284;2023-03-19T03:03:36;97191.50;;;11.32;74.74
15932;BME280;8065;49.520;11.284;2023-03-19T03:06:03;97188.63;;;11.37;74.16
15932;BME280;8065;49.520;11.284;2023-03-19T03:08:30;97191.97;;;11.46;74.50
15932;BME280;8065;49.520;11.284;2023-03-19T03:10:57;97196.16;;;11.35;75.06
15932;BME280;8065;49.520;11.284;2023-03-19T03:13:24;97195.03;;;11.36;74.47
15932;BME280;8065;49.520;11.284;2023-03-19T03:15:52;97205.72;;;11.48;74.07
15932;BME280;8065;49.520;11.284;2023-03-19T03:18:20;97204.19;;;11.60;73.87
15932;BME280;8065;49.520;11.284;2023-03-19T03:20:46;97198.97;;;11.63;74.03
15932;BME280;8065;49.520;11.284;2023-03-19T03:23:13;97199.06;;;11.55;74.32
15932;BME280;8065;49.520;11.284;2023-03-19T03:25:39;97205.28;;;11.59;73.75
15932;BME280;8065;49.520;11.284;2023-03-19T03:28:06;97212.88;;;11.36;74.94
15932;BME280;8065;49.520;11.284;2023-03-19T03:30:32;97205.72;;;11.48;74.60
15932;BME280;8065;49.520;11.284;2023-03-19T03:32:59;97209.03;;;11.45;74.12
15932;BME280;8065;49.520;11.284;2023-03-19T03:35:27;97213.03;;;11.52;74.69
15932;BME280;8065;49.520;11.284;2023-03-19T03:37:53;97222.13;;;11.50;74.47
15932;BME280;8065;49.520;11.284;2023-03-19T03:40:19;97219.59;;;11.54;74.54
15932;BME280;8065;49.520;11.284;2023-03-19T03:42:46;97217.00;;;11.45;74.42
15932;BME280;8065;49.520;11.284;2023-03-19T03:45:12;97226.31;;;11.39;74.78
15932;BME280;8065;49.520;11.284;2023-03-19T03:47:39;97227.66;;;11.45;74.86
15932;BME280;8065;49.520;11.284;2023-03-19T03:50:06;97229.63;;;11.36;75.13
15932;BME280;8065;49.520;11.284;2023-03-19T03:52:36;97230.28;;;11.33;75.23
15932;BME280;8065;49.520;11.284;2023-03-19T03:55:03;97231.50;;;11.24;75.53
15932;BME280;8065;49.520;11.284;2023-03-19T03:57:29;97226.72;;;11.29;75.30
15932;BME280;8065;49.520;11.284;2023-03-19T03:59:56;97229.16;;;11.22;75.31
15932;BME280;8065;49.520;11.284;2023-03-19T04:02:22;97231.78;;;11.10;76.28
15932;BME280;8065;49.520;11.284;2023-03-19T04:04:49;97225.63;;;11.30;75.36
15932;BME280;8065;49.520;11.284;2023-03-19T04:07:16;97229.63;;;11.24;75.84
15932;BME280;8065;49.520;11.284;2023-03-19T04:09:44;97232.28;;;11.24;75.34
15932;BME280;8065;49.520;11.284;2023-03-19T04:12:11;97236.00;;;11.11;75.75
15932;BME280;8065;49.520;11.284;2023-03-19T04:14:37;97235.78;;;11.16;75.84
15932;BME280;8065;49.520;11.284;2023-03-19T04:17:04;97235.59;;;11.21;75.98
15932;BME280;8065;49.520;11.284;2023-03-19T04:19:31;97241.34;;;11.23;75.51
15932;BME280;8065;49.520;11.284;2023-03-19T04:21:57;97234.47;;;11.22;75.71
15932;BME280;8065;49.520;11.284;2023-03-19T04:24:24;97235.66;;;11.12;76.02
15932;BME280;8065;49.520;11.284;2023-03-19T04:26:53;97244.50;;;11.04;76.29
15932;BME280;8065;49.520;11.284;2023-03-19T04:29:19;97243.84;;;11.07;76.17
15932;BME280;8065;49.520;11.284;2023-03-19T04:31:46;97250.47;;;11.01;76.61
15932;BME280;8065;49.520;11.284;2023-03-19T04:34:13;97251.25;;;11.02;77.32
15932;BME280;8065;49.520;11.284;2023-03-19T04:36:39;97250.19;;;11.15;76.29
15932;BME280;8065;49.520;11.284;2023-03-19T04:39:06;97245.78;;;11.19;76.18
15932;BME280;8065;49.520;11.284;2023-03-19T04:41:33;97252.19;;;11.18;75.84
15932;BME280;8065;49.520;11.284;2023-03-19T04:44:01;97248.63;;;11.14;76.04
15932;BME280;8065;49.520;11.284;2023-03-19T04:46:27;97248.31;;;11.28;75.54
15932;BME280;8065;49.520;11.284;2023-03-19T04:48:54;97247.34;;;11.20;75.70
15932;BME280;8065;49.520;11.284;2023-03-19T04:51:20;97251.75;;;11.28;75.65
15932;BME280;8065;49.520;11.284;2023-03-19T04:53:47;97248.44;;;11.31;75.80
15932;BME280;8065;49.520;11.284;2023-03-19T04:56:13;97259.00;;;11.40;75.45
15932;BME280;8065;49.520;11.284;2023-03-19T04:58:40;97250.91;;;11.36;75.62
15932;BME280;8065;49.520;11.284;2023-03-19T05:01:08;97265.31;;;11.35;75.09
15932;BME280;8065;49.520;11.284;2023-03-19T05:03:35;97261.56;;;11.36;75.53
15932;BME280;8065;49.520;11.284;2023-03-19T05:06:01;97265.00;;;11.37;75.10
15932;BME280;8065;49.520;11.284;2023-03-19T05:08:28;97269.97;;;11.26;76.06
15932;BME280;8065;49.520;11.284;2023-03-19T05:10:54;97267.97;;;11.23;76.08
15932;BME280;8065;49.520;11.284;2023-03-19T05:13:21;97270.56;;;11.11;76.57
15932;BME280;8065;49.520;11.284;2023-03-19T05:15:47;97274.16;;;11.27;75.29
15932;BME280;8065;49.520;11.284;2023-03-19T05:18:15;97281.19;;;11.11;75.75
15932;BME280;8065;49.520;11.284;2023-03-19T05:20:42;97282.09;;;11.15;75.53
15932;BME280;8065;49.520;11.284;2023-03-19T05:23:08;97277.50;;;11.24;75.48
15932;BME280;8065;49.520;11.284;2023-03-19T05:25:35;97282.13;;;11.27;75.56
15932;BME280;8065;49.520;11.284;2023-03-19T05:28:01;97287.69;;;11.01;76.77
15932;BME280;8065;49.520;11.284;2023-03-19T05:30:28;97289.75;;;10.96;76.47
15932;BME280;8065;49.520;11.284;2023-03-19T05:32:56;97281.13;;;11.20;76.06
15932;BME280;8065;49.520;11.284;2023-03-19T05:35:24;97283.66;;;11.16;76.00
15932;BME280;8065;49.520;11.284;2023-03-19T05:37:51;97289.97;;;11.11;75.75
15932;BME280;8065;49.520;11.284;2023-03-19T05:40:18;97283.72;;;10.87;76.88
15932;BME280;8065;49.520;11.284;2023-03-19T05:42:45;97291.50;;;10.92;77.19
15932;BME280;8065;49.520;11.284;2023-03-19T05:45:11;97294.81;;;10.89;77.39
15932;BME280;8065;49.520;11.284;2023-03-19T05:47:38;97301.03;;;10.93;77.16
15932;BME280;8065;49.520;11.284;2023-03-19T05:50:05;97313.22;;;10.94;76.91
15932;BME280;8065;49.520;11.284;2023-03-19T05:52:33;97301.94;;;10.97;76.67
15932;BME280;8065;49.520;11.284;2023-03-19T05:54:59;97312.47;;;10.93;76.73
15932;BME280;8065;49.520;11.284;2023-03-19T05:57:26;97322.56;;;11.00;76.14
15932;BME280;8065;49.520;11.284;2023-03-19T05:59:53;97319.91;;;11.00;76.54
15932;BME280;8065;49.520;11.284;2023-03-19T06:02:19;97326.16;;;11.04;77.16
15932;BME280;8065;49.520;11.284;2023-03-19T06:04:46;97332.94;;;10.93;77.52
15932;BME280;8065;49.520;11.284;2023-03-19T06:07:12;97328.81;;;11.04;76.90
15932;BME280;8065;49.520;11.284;2023-03-19T06:09:40;97339.97;;;11.18;76.15
15932;BME280;8065;49.520;11.284;2023-03-19T06:12:07;97331.88;;;11.27;75.90
15932;BME280;8065;49.520;11.284;2023-03-19T06:14:33;97330.47;;;11.29;76.30
15932;BME280;8065;49.520;11.284;2023-03-19T06:17:00;97336.59;;;11.09;77.12
15932;BME280;8065;49.520;11.284;2023-03-19T06:19:26;97343.97;;;11.24;76.20
15932;BME280;8065;49.520;11.284;2023-03-19T06:21:52;97352.94;;;11.20;76.86
15932;BME280;8065;49.520;11.284;2023-03-19T06:24:19;97361.50;;;11.25;75.99
15932;BME280;8065;49.520;11.284;2023-03-19T06:26:47;97363.28;;;11.33;76.15
15932;BME280;8065;49.520;11.284;2023-03-19T06:29:13;97362.44;;;11.41;76.39
15932;BME280;8065;49.520;11.284;2023-03-19T06:31:39;97375.34;;;11.52;75.54
15932;BME280;8065;49.520;11.284;2023-03-19T06:34:06;97369.13;;;11.47;75.82
15932;BME280;8065;49.520;11.284;2023-03-19T06:36:33;97367.03;;;11.53;75.69
15932;BME280;8065;49.520;11.284;2023-03-19T06:38:59;97364.97;;;11.59;75.44
15932;BME280;8065;49.520;11.284;2023-03-19T06:41:25;97372.44;;;11.44;76.04
15932;BME280;8065;49.520;11.284;2023-03-19T06:43:54;97383.78;;;11.54;76.30
15932;BME280;8065;49.520;11.284;2023-03-19T06:46:21;97375.63;;;11.38;76.15
15932;BME280;8065;49.520;11.284;2023-03-19T06:48:48;97388.00;;;11.55;75.46
15932;BME280;8065;49.520;11.284;2023-03-19T06:51:14;97379.00;;;11.47;76.30
15932;BME280;8065;49.520;11.284;2023-03-19T06:53:41;97386.38;;;11.41;76.33
15932;BME280;8065;49.520;11.284;2023-03-19T06:56:07;97390.41;;;11.47;76.66
15932;BME280;8065;49.520;11.284;2023-03-19T06:58:34;97400.00;;;11.40;76.36
15932;BME280;8065;49.520;11.284;2023-03-19T07:01:02;97397.94;;;11.45;76.44
15932;BME280;8065;49.520;11.284;2023-03-19T07:03:28;97409.50;;;11.49;76.38
15932;BME280;8065;49.520;11.284;2023-03-19T07:05:55;97413.72;;;11.50;76.31
15932;BME280;8065;49.520;11.284;2023-03-19T07:08:22;97423.25;;;11.52;76.44
15932;BME280;8065;49.520;11.284;2023-03-19T07:10:52;97416.81;;;11.53;76.59
15932;BME280;8065;49.520;11.284;2023-03-19T07:13:18;97418.00;;;11.64;76.03
15932;BME280;8065;49.520;11.284;2023-03-19T07:15:46;97425.38;;;11.58;76.49
15932;BME280;8065;49.520;11.284;2023-03-19T07:18:13;97430.28;;;11.77;75.61
15932;BME280;8065;49.520;11.284;2023-03-19T07:20:40;97438.06;;;11.82;75.70
15932;BME280;8065;49.520;11.284;2023-03-19T07:23:06;97441.84;;;11.81;75.58
15932;BME280;8065;49.520;11.284;2023-03-19T07:25:33;97447.41;;;11.88;75.55
15932;BME280;8065;49.520;11.284;2023-03-19T07:27:59;97438.16;;;12.06;75.25
15932;BME280;8065;49.520;11.284;2023-03-19T07:30:26;97441.25;;;11.96;75.24
15932;BME280;8065;49.520;11.284;2023-03-19T07:32:53;97447.94;;;12.14;74.87
15932;BME280;8065;49.520;11.284;2023-03-19T07:35:21;97449.72;;;12.10;74.52
15932;BME280;8065;49.520;11.284;2023-03-19T07:37:48;97454.63;;;12.21;74.68
15932;BME280;8065;49.520;11.284;2023-03-19T07:40:15;97457.06;;;12.26;74.19
15932;BME280;8065;49.520;11.284;2023-03-19T07:42:41;97467.88;;;12.41;73.89
15932;BME280;8065;49.520;11.284;2023-03-19T07:45:08;97469.31;;;12.39;74.03
15932;BME280;8065;49.520;11.284;2023-03-19T07:47:35;97476.56;;;12.51;73.97
15932;BME280;8065;49.520;11.284;2023-03-19T07:50:01;97465.72;;;12.68;73.76
15932;BME280;8065;49.520;11.284;2023-03-19T07:52:29;97452.75;;;12.78;73.13
15932;BME280;8065;49.520;11.284;2023-03-19T07:54:55;97466.44;;;12.44;74.37
15932;BME280;8065;49.520;11.284;2023-03-19T07:57:22;97456.94;;;12.67;74.03
15932;BME280;8065;49.520;11.284;2023-03-19T07:59:49;97455.63;;;12.73;74.32
15932;BME280;8065;49.520;11.284;2023-03-19T08:02:16;97450.41;;;12.77;74.45
15932;BME280;8065;49.520;11.284;2023-03-19T08:04:43;97462.19;;;12.76;74.50
15932;BME280;8065;49.520;11.284;2023-03-19T08:07:10;97460.53;;;12.84;74.16
15932;BME280;8065;49.520;11.284;2023-03-19T08:09:38;97458.53;;;12.93;73.71
15932;BME280;8065;49.520;11.284;2023-03-19T08:12:06;97463.84;;;12.80;73.96
15932;BME280;8065;49.520;11.284;2023-03-19T08:14:33;97464.09;;;13.00;73.67
15932;BME280;8065;49.520;11.284;2023-03-19T08:16:59;97471.84;;;13.05;74.33
15932;BME280;8065;49.520;11.284;2023-03-19T08:19:26;97456.97;;;13.16;73.02
15932;BME280;8065;49.520;11.284;2023-03-19T08:21:53;97470.75;;;13.30;72.77
15932;BME280;8065;49.520;11.284;2023-03-19T08:24:19;97462.72;;;13.42;72.78
15932;BME280;8065;49.520;11.284;2023-03-19T08:26:47;97476.28;;;13.50;72.75
15932;BME280;8065;49.520;11.284;2023-03-19T08:29:13;97471.59;;;13.59;72.55
15932;BME280;8065;49.520;11.284;2023-03-19T08:31:40;97484.50;;;13.69;72.70
15932;BME280;8065;49.520;11.284;2023-03-19T08:34:07;97484.03;;;13.79;72.75
15932;BME280;8065;49.520;11.284;2023-03-19T08:36:35;97484.31;;;13.90;72.06
15932;BME280;8065;49.520;11.284;2023-03-19T08:39:02;97487.41;;;13.92;72.40
15932;BME280;8065;49.520;11.284;2023-03-19T08:41:28;97490.53;;;13.94;72.34
15932;BME280;8065;49.520;11.284;2023-03-19T08:43:56;97493.72;;;13.99;71.78
15932;BME280;8065;49.520;11.284;2023-03-19T08:46:23;97496.16;;;14.04;72.74
15932;BME280;8065;49.520;11.284;2023-03-19T08:48:51;97491.69;;;14.08;72.60
15932;BME280;8065;49.520;11.284;2023-03-19T08:51:17;97501.03;;;14.15;72.95
15932;BME280;8065;49.520;11.284;2023-03-19T08:53:43;97500.78;;;14.20;73.28
15932;BME280;8065;49.520;11.284;2023-03-19T08:56:10;97499.53;;;14.29;72.62
15932;BME280;8065;49.520;11.284;2023-03-19T08:58:37;97507.75;;;14.36;72.48
15932;BME280;8065;49.520;11.284;2023-03-19T09:01:06;97515.22;;;14.31;73.17
15932;BME280;8065;49.520;11.284;2023-03-19T09:03:35;97512.13;;;14.29;72.95
15932;BME280;8065;49.520;11.284;2023-03-19T09:06:04;97512.78;;;14.26;73.29
15932;BME280;8065;49.520;11.284;2023-03-19T09:08:31;97513.66;;;14.30;73.17
15932;BME280;8065;49.520;11.284;2023-03-19T09:10:58;97522.16;;;14.20;74.58
15932;BME280;8065;49.520;11.284;2023-03-19T09:13:25;97514.34;;;14.27;74.90
15932;BME280;8065;49.520;11.284;2023-03-19T09:15:51;97527.94;;;14.22;76.24
15932;BME280;8065;49.520;11.284;2023-03-19T09:18:19;97523.59;;;14.29;76.45
15932;BME280;8065;49.520;11.284;2023-03-19T09:20:48;97521.16;;;14.24;77.09
15932;BME280;8065;49.520;11.284;2023-03-19T09:23:15;97519.78;;;14.30;77.24
15932;BME280;8065;49.520;11.284;2023-03-19T09:25:41;97520.56;;;14.31;76.91
15932;BME280;8065;49.520;11.284;2023-03-19T09:28:08;97528.78;;;14.38;76.74
15932;BME280;8065;49.520;11.284;2023-03-19T09:30:35;97519.66;;;14.39;77.29
15932;BME280;8065;49.520;11.284;2023-03-19T09:33:02;97528.56;;;14.43;77.16
15932;BME280;8065;49.520;11.284;2023-03-19T09:35:30;97523.88;;;14.40;77.29
15932;BME280;8065;49.520;11.284;2023-03-19T09:37:57;97530.34;;;14.39;77.17
15932;BME280;8065;49.520;11.284;2023-03-19T09:40:27;97531.59;;;14.41;77.11
15932;BME280;8065;49.520;11.284;2023-03-19T09:43:00;97530.13;;;14.44;77.41
15932;BME280;8065;49.520;11.284;2023-03-19T09:45:31;97535.03;;;14.42;78.33
15932;BME280;8065;49.520;11.284;2023-03-19T09:48:00;97534.34;;;14.45;77.96
15932;BME280;8065;49.520;11.284;2023-03-19T09:50:32;97534.13;;;14.38;78.19
15932;BME280;8065;49.520;11.284;2023-03-19T09:53:05;97536.94;;;14.41;78.24
15932;BME280;8065;49.520;11.284;2023-03-19T09:55:39;97533.69;;;14.36;79.01
15932;BME280;8065;49.520;11.284;2023-03-19T09:58:12;97533.00;;;14.39;79.28
15932;BME280;8065;49.520;11.284;2023-03-19T10:00:40;97536.03;;;14.37;78.90
15932;BME280;8065;49.520;11.284;2023-03-19T10:03:30;97536.59;;;14.31;79.13
15932;BME280;8065;49.520;11.284;2023-03-19T10:06:18;97532.63;;;14.25;79.42
15932;BME280;8065;49.520;11.284;2023-03-19T10:09:04;97539.41;;;14.22;80.02
15932;BME280;8065;49.520;11.284;2023-03-19T10:11:50;97536.84;;;14.26;79.94
15932;BME280;8065;49.520;11.284;2023-03-19T10:15:00;97532.63;;;14.25;79.98
15932;BME280;8065;49.520;11.284;2023-03-19T10:17:31;97543.75;;;14.27;80.92
15932;BME280;8065;49.520;11.284;2023-03-19T10:20:02;97541.19;;;14.30;80.50
15932;BME280;8065;49.520;11.284;2023-03-19T10:22:35;97535.38;;;14.28;81.23
15932;BME280;8065;49.520;11.284;2023-03-19T10:25:04;97533.59;;;14.32;81.99
15932;BME280;8065;49.520;11.284;2023-03-19T10:27:36;97544.38;;;14.36;81.63
15932;BME280;8065;49.520;11.284;2023-03-19T10:30:12;97548.31;;;14.26;83.00
15932;BME280;8065;49.520;11.284;2023-03-19T10:32:41;97539.31;;;14.19;82.27
15932;BME280;8065;49.520;11.284;2023-03-19T10:35:16;97536.56;;;14.15;82.73
15932;BME280;8065;49.520;11.284;2023-03-19T10:37:46;97540.97;;;14.23;82.06
15932;BME280;8065;49.520;11.284;2023-03-19T10:40:19;97547.97;;;14.28;81.84
15932;BME280;8065;49.520;11.284;2023-03-19T10:43:00;97542.72;;;14.31;82.03
15932;BME280;8065;49.520;11.284;2023-03-19T10:45:30;97549.72;;;14.36;81.42
15932;BME280;8065;49.520;11.284;2023-03-19T10:47:59;97545.59;;;14.10;83.25
15932;BME280;8065;49.520;11.284;2023-03-19T10:50:29;97547.56;;;14.14;83.33
15932;BME280;8065;49.520;11.284;2023-03-19T10:53:04;97545.81;;;14.05;84.27
15932;BME280;8065;49.520;11.284;2023-03-19T10:55:31;97546.72;;;13.97;85.20
15932;BME280;8065;49.520;11.284;2023-03-19T10:58:02;97540.25;;;14.10;84.40
15932;BME280;8065;49.520;11.284;2023-03-19T11:00:30;97534.22;;;14.14;84.37
15932;BME280;8065;49.520;11.284;2023-03-19T11:02:58;97530.66;;;14.09;84.99
15932;BME280;8065;49.520;11.284;2023-03-19T11:05:29;97534.19;;;14.26;84.01
15932;BME280;8065;49.520;11.284;2023-03-19T11:07:58;97531.25;;;14.31;84.04
15932;BME280;8065;49.520;11.284;2023-03-19T11:10:29;97533.13;;;14.42;83.75
15932;BME280;8065;49.520;11.284;2023-03-19T11:12:57;97535.75;;;14.55;83.49
15932;BME280;8065;49.520;11.284;2023-03-19T11:15:27;97521.38;;;14.59;83.63
15932;BME280;8065;49.520;11.284;2023-03-19T11:17:57;97518.34;;;14.61;85.13
15932;BME280;8065;49.520;11.284;2023-03-19T11:20:28;97526.09;;;14.38;86.26
15932;BME280;8065;49.520;11.284;2023-03-19T11:22:55;97521.38;;;14.59;85.92
15932;BME280;8065;49.520;11.284;2023-03-19T11:25:29;97521.00;;;14.76;84.25
15932;BME280;8065;49.520;11.284;2023-03-19T11:28:00;97511.09;;;14.61;85.26
15932;BME280;8065;49.520;11.284;2023-03-19T11:30:35;97508.25;;;14.54;87.10
15932;BME280;8065;49.520;11.284;2023-03-19T11:33:15;97498.59;;;14.65;86.83
15932;BME280;8065;49.520;11.284;2023-03-19T11:35:49;97504.97;;;14.76;86.42
15932;BME280;8065;49.520;11.284;2023-03-19T11:38:19;97502.38;;;14.64;85.79
15932;BME280;8065;49.520;11.284;2023-03-19T11:40:56;97494.63;;;14.91;84.52
15932;BME280;8065;49.520;11.284;2023-03-19T11:43:43;97492.63;;;15.19;83.56
15932;BME280;8065;49.520;11.284;2023-03-19T11:49:20;97472.75;;;15.71;81.18
15932;BME280;8065;49.520;11.284;2023-03-19T11:51:52;97469.09;;;16.18;80.32
15932;BME280;8065;49.520;11.284;2023-03-19T11:54:30;97472.47;;;16.34;81.30
15932;BME280;8065;49.520;11.284;2023-03-19T11:57:03;97466.69;;;16.13;81.60
15932;BME280;8065;49.520;11.284;2023-03-19T11:59:44;97457.44;;;16.10;83.29
15932;BME280;8065;49.520;11.284;2023-03-19T12:02:31;97456.97;;;15.85;81.58
15932;BME280;8065;49.520;11.284;2023-03-19T12:05:08;97453.78;;;16.18;81.16
15932;BME280;8065;49.520;11.284;2023-03-19T12:07:43;97440.19;;;16.73;79.48
15932;BME280;8065;49.520;11.284;2023-03-19T12:10:26;97439.63;;;16.63;79.30
15932;BME280;8065;49.520;11.284;2023-03-19T12:13:05;97433.22;;;17.17;78.17
15932;BME280;8065;49.520;11.284;2023-03-19T12:15:44;97437.75;;;17.13;78.12
15932;BME280;8065;49.520;11.284;2023-03-19T12:18:20;97437.19;;;17.57;77.95
15932;BME280;8065;49.520;11.284;2023-03-19T12:20:55;97431.16;;;17.93;76.24
15932;BME280;8065;49.520;11.284;2023-03-19T12:23:35;97423.19;;;17.71;74.98
15932;BME280;8065;49.520;11.284;2023-03-19T12:26:06;97428.22;;;18.06;75.49
15932;BME280;8065;49.520;11.284;2023-03-19T12:28:38;97424.88;;;18.16;75.81
15932;BME280;8065;49.520;11.284;2023-03-19T12:31:27;97428.78;;;17.88;75.15
15932;BME280;8065;49.520;11.284;2023-03-19T12:34:08;97413.47;;;17.92;74.48
15932;BME280;8065;49.520;11.284;2023-03-19T12:36:46;97406.69;;;18.06;74.86
15932;BME280;8065;49.520;11.284;2023-03-19T12:39:17;97411.69;;;18.04;74.49
15932;BME280;8065;49.520;11.284;2023-03-19T12:41:47;97407.31;;;17.92;72.47
15932;BME280;8065;49.520;11.284;2023-03-19T12:44:18;97408.09;;;17.92;70.96
15932;BME280;8065;49.520;11.284;2023-03-19T12:46:52;97406.28;;;17.70;71.86
15932;BME280;8065;49.520;11.284;2023-03-19T12:49:25;97403.94;;;17.98;72.49
15932;BME280;8065;49.520;11.284;2023-03-19T12:51:57;97397.81;;;18.42;71.48
15932;BME280;8065;49.520;11.284;2023-03-19T12:54:28;97398.16;;;18.78;70.38
15932;BME280;8065;49.520;11.284;2023-03-19T12:56:59;97395.28;;;19.11;70.20
15932;BME280;8065;49.520;11.284;2023-03-19T12:59:34;97400.84;;;19.40;68.89
15932;BME280;8065;49.520;11.284;2023-03-19T13:02:10;97393.78;;;19.17;68.77
15932;BME280;8065;49.520;11.284;2023-03-19T13:04:39;97401.72;;;19.58;68.25
15932;BME280;8065;49.520;11.284;2023-03-19T13:07:17;97394.16;;;19.88;66.98
15932;BME280;8065;49.520;11.284;2023-03-19T13:09:48;97398.00;;;19.84;65.01
15932;BME280;8065;49.520;11.284;2023-03-19T13:12:21;97400.19;;;19.57;65.90